sensor_id;sensor_type;location;lat;lon;timestamp;P1;durP1;ratioP1;P2;durP2;ratioP2
74528;SDS011;63009;52.584;5.932;2022-12-05T00:02:03;27.88;;;12.43;;
74528;SDS011;63009;52.584;5.932;2022-12-05T00:04:28;32.33;;;13.27;;
74528;SDS011;63009;52.584;5.932;2022-12-05T00:06:55;29.80;;;13.43;;
74528;SDS011;63009;52.584;5.932;2022-12-05T00:09:20;32.17;;;11.93;;
74528;SDS011;63009;52.584;5.932;2022-12-05T00:11:45;30.93;;;12.97;;
74528;SDS011;63009;52.584;5.932;2022-12-05T00:14:11;32.00;;;12.27;;
74528;SDS011;63009;52.584;5.932;2022-12-05T00:16:37;29.23;;;13.13;;
74528;SDS011;63009;52.584;5.932;2022-12-05T00:19:05;30.25;;;12.30;;
74528;SDS011;63009;52.584;5.932;2022-12-05T00:21:32;26.13;;;11.13;;
74528;SDS011;63009;52.584;5.932;2022-12-05T00:24:00;29.02;;;12.27;;
74528;SDS011;63009;52.584;5.932;2022-12-05T00:26:26;31.75;;;13.88;;
74528;SDS011;63009;52.584;5.932;2022-12-05T00:28:51;25.92;;;12.30;;
74528;SDS011;63009;52.584;5.932;2022-12-05T00:31:19;30.15;;;12.27;;
74528;SDS011;63009;52.584;5.932;2022-12-05T00:33:46;27.98;;;14.43;;
74528;SDS011;63009;52.584;5.932;2022-12-05T00:36:13;26.13;;;12.05;;
74528;SDS011;63009;52.584;5.932;2022-12-05T00:38:49;28.20;;;11.95;;
74528;SDS011;63009;52.584;5.932;2022-12-05T00:41:17;31.23;;;13.35;;
74528;SDS011;63009;52.584;5.932;2022-12-05T00:43:43;31.17;;;13.40;;
74528;SDS011;63009;52.584;5.932;2022-12-05T00:46:12;26.83;;;12.90;;
74528;SDS011;63009;52.584;5.932;2022-12-05T00:48:40;29.17;;;12.60;;
74528;SDS011;63009;52.584;5.932;2022-12-05T00:51:10;30.60;;;12.23;;
74528;SDS011;63009;52.584;5.932;2022-12-05T00:53:38;30.73;;;12.60;;
74528;SDS011;63009;52.584;5.932;2022-12-05T00:56:05;30.92;;;13.43;;
74528;SDS011;63009;52.584;5.932;2022-12-05T00:58:32;31.25;;;13.60;;
74528;SDS011;63009;52.584;5.932;2022-12-05T01:01:04;28.75;;;12.25;;
74528;SDS011;63009;52.584;5.932;2022-12-05T01:03:30;25.15;;;10.43;;
74528;SDS011;63009;52.584;5.932;2022-12-05T01:05:57;28.70;;;11.57;;
74528;SDS011;63009;52.584;5.932;2022-12-05T01:08:23;29.85;;;11.82;;
74528;SDS011;63009;52.584;5.932;2022-12-05T01:10:52;28.33;;;12.63;;
74528;SDS011;63009;52.584;5.932;2022-12-05T01:13:18;28.88;;;12.13;;
74528;SDS011;63009;52.584;5.932;2022-12-05T01:15:44;31.07;;;11.87;;
74528;SDS011;63009;52.584;5.932;2022-12-05T01:18:09;26.27;;;11.13;;
74528;SDS011;63009;52.584;5.932;2022-12-05T01:20:37;28.55;;;12.18;;
74528;SDS011;63009;52.584;5.932;2022-12-05T01:23:03;28.13;;;11.20;;
74528;SDS011;63009;52.584;5.932;2022-12-05T01:25:28;29.97;;;12.93;;
74528;SDS011;63009;52.584;5.932;2022-12-05T01:27:53;27.80;;;12.00;;
74528;SDS011;63009;52.584;5.932;2022-12-05T01:30:19;24.53;;;10.57;;
74528;SDS011;63009;52.584;5.932;2022-12-05T01:32:44;21.98;;;9.60;;
74528;SDS011;63009;52.584;5.932;2022-12-05T01:35:09;25.70;;;11.13;;
74528;SDS011;63009;52.584;5.932;2022-12-05T01:37:35;25.40;;;10.53;;
74528;SDS011;63009;52.584;5.932;2022-12-05T01:40:00;26.08;;;11.18;;
74528;SDS011;63009;52.584;5.932;2022-12-05T01:42:25;26.08;;;11.15;;
74528;SDS011;63009;52.584;5.932;2022-12-05T01:44:58;23.38;;;9.98;;
74528;SDS011;63009;52.584;5.932;2022-12-05T01:47:29;24.25;;;8.93;;
74528;SDS011;63009;52.584;5.932;2022-12-05T01:49:57;26.02;;;10.63;;
74528;SDS011;63009;52.584;5.932;2022-12-05T01:52:24;24.27;;;10.52;;
74528;SDS011;63009;52.584;5.932;2022-12-05T01:54:53;22.45;;;8.93;;
74528;SDS011;63009;52.584;5.932;2022-12-05T01:57:20;24.60;;;10.60;;
74528;SDS011;63009;52.584;5.932;2022-12-05T01:59:48;21.80;;;9.45;;
74528;SDS011;63009;52.584;5.932;2022-12-05T02:02:15;23.52;;;10.82;;
74528;SDS011;63009;52.584;5.932;2022-12-05T02:04:46;26.70;;;11.35;;
74528;SDS011;63009;52.584;5.932;2022-12-05T02:07:24;24.38;;;9.90;;
74528;SDS011;63009;52.584;5.932;2022-12-05T02:09:50;24.33;;;11.32;;
74528;SDS011;63009;52.584;5.932;2022-12-05T02:12:15;24.52;;;9.90;;
74528;SDS011;63009;52.584;5.932;2022-12-05T02:20:25;29.48;;;11.27;;
74528;SDS011;63009;52.584;5.932;2022-12-05T02:37:20;27.90;;;11.93;;
74528;SDS011;63009;52.584;5.932;2022-12-05T02:39:53;36.03;;;13.85;;
74528;SDS011;63009;52.584;5.932;2022-12-05T02:45:12;29.33;;;12.63;;
74528;SDS011;63009;52.584;5.932;2022-12-05T02:50:12;27.85;;;11.55;;
74528;SDS011;63009;52.584;5.932;2022-12-05T02:52:41;27.08;;;11.77;;
74528;SDS011;63009;52.584;5.932;2022-12-05T02:55:09;30.58;;;12.90;;
74528;SDS011;63009;52.584;5.932;2022-12-05T02:57:36;28.90;;;12.73;;
74528;SDS011;63009;52.584;5.932;2022-12-05T03:00:03;29.52;;;12.68;;
74528;SDS011;63009;52.584;5.932;2022-12-05T03:02:30;27.45;;;12.32;;
74528;SDS011;63009;52.584;5.932;2022-12-05T03:05:16;29.65;;;14.32;;
74528;SDS011;63009;52.584;5.932;2022-12-05T03:07:50;30.63;;;14.27;;
74528;SDS011;63009;52.584;5.932;2022-12-05T03:10:18;30.10;;;12.50;;
74528;SDS011;63009;52.584;5.932;2022-12-05T03:12:49;35.67;;;14.60;;
74528;SDS011;63009;52.584;5.932;2022-12-05T03:15:20;34.17;;;14.63;;
74528;SDS011;63009;52.584;5.932;2022-12-05T03:17:54;33.47;;;14.35;;
74528;SDS011;63009;52.584;5.932;2022-12-05T03:20:30;30.42;;;12.88;;
74528;SDS011;63009;52.584;5.932;2022-12-05T03:22:59;30.88;;;12.93;;
74528;SDS011;63009;52.584;5.932;2022-12-05T03:25:34;31.33;;;12.30;;
74528;SDS011;63009;52.584;5.932;2022-12-05T03:28:06;29.67;;;12.93;;
74528;SDS011;63009;52.584;5.932;2022-12-05T03:30:42;33.40;;;13.02;;
74528;SDS011;63009;52.584;5.932;2022-12-05T03:33:12;31.20;;;13.52;;
74528;SDS011;63009;52.584;5.932;2022-12-05T03:35:43;34.30;;;13.70;;
74528;SDS011;63009;52.584;5.932;2022-12-05T03:38:29;35.22;;;14.32;;
74528;SDS011;63009;52.584;5.932;2022-12-05T03:41:21;33.00;;;13.32;;
74528;SDS011;63009;52.584;5.932;2022-12-05T03:44:13;32.25;;;13.55;;
74528;SDS011;63009;52.584;5.932;2022-12-05T03:51:59;37.40;;;14.13;;
74528;SDS011;63009;52.584;5.932;2022-12-05T03:54:31;32.55;;;14.27;;
74528;SDS011;63009;52.584;5.932;2022-12-05T03:57:02;31.75;;;13.45;;
74528;SDS011;63009;52.584;5.932;2022-12-05T03:59:41;35.13;;;15.02;;
74528;SDS011;63009;52.584;5.932;2022-12-05T04:02:14;34.65;;;14.68;;
74528;SDS011;63009;52.584;5.932;2022-12-05T04:04:47;33.17;;;13.10;;
74528;SDS011;63009;52.584;5.932;2022-12-05T04:07:18;36.80;;;15.07;;
74528;SDS011;63009;52.584;5.932;2022-12-05T04:09:47;38.13;;;14.68;;
74528;SDS011;63009;52.584;5.932;2022-12-05T04:12:18;34.65;;;15.32;;
74528;SDS011;63009;52.584;5.932;2022-12-05T04:14:59;39.22;;;15.18;;
74528;SDS011;63009;52.584;5.932;2022-12-05T04:17:33;34.13;;;13.80;;
74528;SDS011;63009;52.584;5.932;2022-12-05T04:20:11;32.03;;;13.40;;
74528;SDS011;63009;52.584;5.932;2022-12-05T04:22:59;37.58;;;14.52;;
74528;SDS011;63009;52.584;5.932;2022-12-05T04:25:26;34.13;;;15.40;;
74528;SDS011;63009;52.584;5.932;2022-12-05T04:35:54;34.45;;;12.95;;
74528;SDS011;63009;52.584;5.932;2022-12-05T04:38:27;32.05;;;14.23;;
74528;SDS011;63009;52.584;5.932;2022-12-05T04:41:00;33.50;;;14.88;;
74528;SDS011;63009;52.584;5.932;2022-12-05T04:43:28;36.78;;;14.77;;
74528;SDS011;63009;52.584;5.932;2022-12-05T04:45:57;33.97;;;14.55;;
74528;SDS011;63009;52.584;5.932;2022-12-05T04:48:24;33.67;;;13.52;;
74528;SDS011;63009;52.584;5.932;2022-12-05T04:50:52;32.95;;;14.48;;
74528;SDS011;63009;52.584;5.932;2022-12-05T04:53:20;32.65;;;14.63;;
74528;SDS011;63009;52.584;5.932;2022-12-05T04:55:48;31.23;;;14.15;;
74528;SDS011;63009;52.584;5.932;2022-12-05T04:58:18;34.28;;;14.43;;
74528;SDS011;63009;52.584;5.932;2022-12-05T05:06:06;29.92;;;13.05;;
74528;SDS011;63009;52.584;5.932;2022-12-05T05:08:34;29.42;;;13.30;;
74528;SDS011;63009;52.584;5.932;2022-12-05T05:13:37;27.33;;;11.27;;
74528;SDS011;63009;52.584;5.932;2022-12-05T05:16:02;27.27;;;11.70;;
74528;SDS011;63009;52.584;5.932;2022-12-05T05:18:28;31.15;;;11.48;;
74528;SDS011;63009;52.584;5.932;2022-12-05T05:20:53;26.47;;;12.07;;
74528;SDS011;63009;52.584;5.932;2022-12-05T05:23:18;24.43;;;10.87;;
74528;SDS011;63009;52.584;5.932;2022-12-05T05:25:43;26.17;;;11.17;;
74528;SDS011;63009;52.584;5.932;2022-12-05T05:28:09;22.33;;;10.57;;
74528;SDS011;63009;52.584;5.932;2022-12-05T05:30:34;23.52;;;10.32;;
74528;SDS011;63009;52.584;5.932;2022-12-05T05:32:59;23.77;;;10.53;;
74528;SDS011;63009;52.584;5.932;2022-12-05T05:35:25;23.80;;;10.98;;
74528;SDS011;63009;52.584;5.932;2022-12-05T05:37:50;21.20;;;10.33;;
74528;SDS011;63009;52.584;5.932;2022-12-05T05:40:15;20.40;;;8.90;;
74528;SDS011;63009;52.584;5.932;2022-12-05T05:42:42;22.52;;;9.23;;
74528;SDS011;63009;52.584;5.932;2022-12-05T05:45:09;21.48;;;9.50;;
74528;SDS011;63009;52.584;5.932;2022-12-05T05:47:35;21.33;;;9.23;;
74528;SDS011;63009;52.584;5.932;2022-12-05T05:50:00;19.53;;;7.83;;
74528;SDS011;63009;52.584;5.932;2022-12-05T05:52:26;18.63;;;8.30;;
74528;SDS011;63009;52.584;5.932;2022-12-05T05:54:51;17.47;;;8.40;;
74528;SDS011;63009;52.584;5.932;2022-12-05T05:57:16;17.47;;;7.97;;
74528;SDS011;63009;52.584;5.932;2022-12-05T05:59:41;18.90;;;7.47;;
74528;SDS011;63009;52.584;5.932;2022-12-05T06:02:07;19.17;;;7.73;;
74528;SDS011;63009;52.584;5.932;2022-12-05T06:04:33;16.25;;;8.07;;
74528;SDS011;63009;52.584;5.932;2022-12-05T06:06:59;19.30;;;8.50;;
74528;SDS011;63009;52.584;5.932;2022-12-05T06:09:24;16.23;;;7.15;;
74528;SDS011;63009;52.584;5.932;2022-12-05T06:11:49;15.27;;;6.47;;
74528;SDS011;63009;52.584;5.932;2022-12-05T06:14:15;15.63;;;7.90;;
74528;SDS011;63009;52.584;5.932;2022-12-05T06:16:40;15.73;;;7.40;;
74528;SDS011;63009;52.584;5.932;2022-12-05T06:19:05;17.50;;;7.20;;
74528;SDS011;63009;52.584;5.932;2022-12-05T06:21:30;16.57;;;7.40;;
74528;SDS011;63009;52.584;5.932;2022-12-05T06:23:56;16.13;;;7.07;;
74528;SDS011;63009;52.584;5.932;2022-12-05T06:26:21;15.75;;;6.60;;
74528;SDS011;63009;52.584;5.932;2022-12-05T06:28:47;14.00;;;6.78;;
74528;SDS011;63009;52.584;5.932;2022-12-05T06:31:22;15.75;;;6.07;;
74528;SDS011;63009;52.584;5.932;2022-12-05T06:33:50;13.93;;;7.03;;
74528;SDS011;63009;52.584;5.932;2022-12-05T06:36:18;14.13;;;5.87;;
74528;SDS011;63009;52.584;5.932;2022-12-05T06:38:44;12.90;;;5.93;;
74528;SDS011;63009;52.584;5.932;2022-12-05T06:41:12;12.88;;;6.07;;
74528;SDS011;63009;52.584;5.932;2022-12-05T06:43:39;11.85;;;5.10;;
74528;SDS011;63009;52.584;5.932;2022-12-05T06:46:06;12.52;;;5.55;;
74528;SDS011;63009;52.584;5.932;2022-12-05T06:48:32;14.80;;;5.88;;
74528;SDS011;63009;52.584;5.932;2022-12-05T06:50:58;12.20;;;5.57;;
74528;SDS011;63009;52.584;5.932;2022-12-05T06:53:24;12.35;;;5.40;;
74528;SDS011;63009;52.584;5.932;2022-12-05T06:55:56;12.00;;;5.15;;
74528;SDS011;63009;52.584;5.932;2022-12-05T06:58:23;10.80;;;4.50;;
74528;SDS011;63009;52.584;5.932;2022-12-05T07:00:48;10.80;;;4.50;;
74528;SDS011;63009;52.584;5.932;2022-12-05T07:03:32;10.45;;;4.53;;
74528;SDS011;63009;52.584;5.932;2022-12-05T07:06:01;9.90;;;4.50;;
74528;SDS011;63009;52.584;5.932;2022-12-05T07:08:27;9.98;;;4.32;;
74528;SDS011;63009;52.584;5.932;2022-12-05T07:10:52;10.33;;;4.53;;
74528;SDS011;63009;52.584;5.932;2022-12-05T07:13:17;10.07;;;3.87;;
74528;SDS011;63009;52.584;5.932;2022-12-05T07:15:44;10.90;;;4.35;;
74528;SDS011;63009;52.584;5.932;2022-12-05T07:18:12;10.50;;;4.13;;
74528;SDS011;63009;52.584;5.932;2022-12-05T07:20:38;12.30;;;4.65;;
74528;SDS011;63009;52.584;5.932;2022-12-05T07:23:03;11.50;;;5.07;;
74528;SDS011;63009;52.584;5.932;2022-12-05T07:25:28;11.30;;;4.47;;
74528;SDS011;63009;52.584;5.932;2022-12-05T07:27:53;10.40;;;4.00;;
74528;SDS011;63009;52.584;5.932;2022-12-05T07:30:19;12.43;;;5.57;;
74528;SDS011;63009;52.584;5.932;2022-12-05T07:32:44;11.10;;;5.00;;
74528;SDS011;63009;52.584;5.932;2022-12-05T07:35:09;11.63;;;4.27;;
74528;SDS011;63009;52.584;5.932;2022-12-05T07:37:34;11.10;;;4.33;;
74528;SDS011;63009;52.584;5.932;2022-12-05T07:40:00;10.93;;;4.63;;
74528;SDS011;63009;52.584;5.932;2022-12-05T07:42:25;10.53;;;4.33;;
74528;SDS011;63009;52.584;5.932;2022-12-05T07:44:50;9.77;;;3.93;;
74528;SDS011;63009;52.584;5.932;2022-12-05T07:47:15;10.93;;;4.77;;
74528;SDS011;63009;52.584;5.932;2022-12-05T07:49:41;11.93;;;4.80;;
74528;SDS011;63009;52.584;5.932;2022-12-05T07:52:06;10.88;;;4.38;;
74528;SDS011;63009;52.584;5.932;2022-12-05T07:54:32;9.65;;;4.10;;
74528;SDS011;63009;52.584;5.932;2022-12-05T07:56:57;9.90;;;4.35;;
74528;SDS011;63009;52.584;5.932;2022-12-05T07:59:22;10.10;;;3.80;;
74528;SDS011;63009;52.584;5.932;2022-12-05T08:01:47;9.63;;;3.73;;
74528;SDS011;63009;52.584;5.932;2022-12-05T08:04:13;8.88;;;3.25;;
74528;SDS011;63009;52.584;5.932;2022-12-05T08:06:38;9.02;;;3.33;;
74528;SDS011;63009;52.584;5.932;2022-12-05T08:09:03;8.47;;;3.57;;
74528;SDS011;63009;52.584;5.932;2022-12-05T08:11:30;8.77;;;3.53;;
74528;SDS011;63009;52.584;5.932;2022-12-05T08:13:59;10.93;;;3.83;;
74528;SDS011;63009;52.584;5.932;2022-12-05T08:16:26;8.18;;;3.33;;
74528;SDS011;63009;52.584;5.932;2022-12-05T08:18:53;8.82;;;3.28;;
74528;SDS011;63009;52.584;5.932;2022-12-05T08:21:19;10.00;;;3.45;;
74528;SDS011;63009;52.584;5.932;2022-12-05T08:23:45;9.77;;;3.10;;
74528;SDS011;63009;52.584;5.932;2022-12-05T08:26:13;8.70;;;3.35;;
74528;SDS011;63009;52.584;5.932;2022-12-05T08:28:40;8.80;;;3.20;;
74528;SDS011;63009;52.584;5.932;2022-12-05T08:31:11;7.85;;;2.90;;
74528;SDS011;63009;52.584;5.932;2022-12-05T08:33:38;8.30;;;2.85;;
74528;SDS011;63009;52.584;5.932;2022-12-05T08:36:05;8.73;;;2.92;;
74528;SDS011;63009;52.584;5.932;2022-12-05T08:38:32;8.48;;;3.03;;
74528;SDS011;63009;52.584;5.932;2022-12-05T08:41:01;8.00;;;3.00;;
74528;SDS011;63009;52.584;5.932;2022-12-05T08:43:28;9.80;;;3.13;;
74528;SDS011;63009;52.584;5.932;2022-12-05T08:45:54;10.25;;;3.35;;
74528;SDS011;63009;52.584;5.932;2022-12-05T08:48:19;9.93;;;3.30;;
74528;SDS011;63009;52.584;5.932;2022-12-05T08:50:45;10.88;;;3.80;;
74528;SDS011;63009;52.584;5.932;2022-12-05T08:53:10;8.35;;;3.40;;
74528;SDS011;63009;52.584;5.932;2022-12-05T08:55:36;9.50;;;3.47;;
74528;SDS011;63009;52.584;5.932;2022-12-05T08:58:01;8.85;;;3.47;;
74528;SDS011;63009;52.584;5.932;2022-12-05T09:00:27;8.77;;;3.88;;
74528;SDS011;63009;52.584;5.932;2022-12-05T09:02:52;10.17;;;3.50;;
74528;SDS011;63009;52.584;5.932;2022-12-05T09:05:17;9.20;;;3.90;;
74528;SDS011;63009;52.584;5.932;2022-12-05T09:07:43;10.07;;;3.70;;
74528;SDS011;63009;52.584;5.932;2022-12-05T09:10:08;11.43;;;3.97;;
74528;SDS011;63009;52.584;5.932;2022-12-05T09:12:35;9.30;;;3.65;;
74528;SDS011;63009;52.584;5.932;2022-12-05T09:15:00;9.75;;;3.88;;
74528;SDS011;63009;52.584;5.932;2022-12-05T09:17:26;9.93;;;4.40;;
74528;SDS011;63009;52.584;5.932;2022-12-05T09:19:51;11.30;;;4.80;;
74528;SDS011;63009;52.584;5.932;2022-12-05T09:22:17;10.45;;;3.90;;
74528;SDS011;63009;52.584;5.932;2022-12-05T09:24:42;10.23;;;3.83;;
74528;SDS011;63009;52.584;5.932;2022-12-05T09:27:07;10.83;;;4.07;;
74528;SDS011;63009;52.584;5.932;2022-12-05T09:29:32;10.67;;;4.37;;
74528;SDS011;63009;52.584;5.932;2022-12-05T09:31:58;11.48;;;4.78;;
74528;SDS011;63009;52.584;5.932;2022-12-05T09:34:23;14.45;;;5.15;;
74528;SDS011;63009;52.584;5.932;2022-12-05T09:36:50;11.60;;;4.30;;
74528;SDS011;63009;52.584;5.932;2022-12-05T09:39:16;10.75;;;4.63;;
74528;SDS011;63009;52.584;5.932;2022-12-05T09:41:46;13.02;;;4.78;;
74528;SDS011;63009;52.584;5.932;2022-12-05T09:47:22;12.48;;;4.90;;
74528;SDS011;63009;52.584;5.932;2022-12-05T09:50:14;10.70;;;4.82;;
74528;SDS011;63009;52.584;5.932;2022-12-05T09:52:46;11.52;;;4.95;;
74528;SDS011;63009;52.584;5.932;2022-12-05T09:55:33;12.10;;;5.40;;
74528;SDS011;63009;52.584;5.932;2022-12-05T09:58:02;12.05;;;5.00;;
74528;SDS011;63009;52.584;5.932;2022-12-05T10:00:29;11.13;;;4.82;;
74528;SDS011;63009;52.584;5.932;2022-12-05T10:03:02;12.70;;;4.57;;
74528;SDS011;63009;52.584;5.932;2022-12-05T10:06:03;11.77;;;5.10;;
74528;SDS011;63009;52.584;5.932;2022-12-05T10:11:54;12.52;;;4.55;;
74528;SDS011;63009;52.584;5.932;2022-12-05T10:14:41;11.48;;;4.75;;
74528;SDS011;63009;52.584;5.932;2022-12-05T10:17:20;12.00;;;4.65;;
74528;SDS011;63009;52.584;5.932;2022-12-05T10:19:50;13.55;;;4.97;;
74528;SDS011;63009;52.584;5.932;2022-12-05T10:22:22;12.38;;;4.20;;
74528;SDS011;63009;52.584;5.932;2022-12-05T10:24:54;11.77;;;5.38;;
74528;SDS011;63009;52.584;5.932;2022-12-05T10:27:58;11.80;;;4.95;;
74528;SDS011;63009;52.584;5.932;2022-12-05T10:30:21;12.88;;;5.20;;
74528;SDS011;63009;52.584;5.932;2022-12-05T23:22:40;11.68;;;3.20;;
74528;SDS011;63009;52.584;5.932;2022-12-05T23:25:05;10.75;;;3.67;;
74528;SDS011;63009;52.584;5.932;2022-12-05T23:27:31;11.10;;;3.00;;
74528;SDS011;63009;52.584;5.932;2022-12-05T23:29:58;10.70;;;3.30;;
74528;SDS011;63009;52.584;5.932;2022-12-05T23:32:24;10.70;;;3.10;;
74528;SDS011;63009;52.584;5.932;2022-12-05T23:34:49;13.55;;;3.50;;
74528;SDS011;63009;52.584;5.932;2022-12-05T23:37:14;12.43;;;4.13;;
74528;SDS011;63009;52.584;5.932;2022-12-05T23:39:39;13.60;;;4.55;;
74528;SDS011;63009;52.584;5.932;2022-12-05T23:42:05;10.47;;;2.83;;
74528;SDS011;63009;52.584;5.932;2022-12-05T23:44:30;11.77;;;3.03;;
74528;SDS011;63009;52.584;5.932;2022-12-05T23:46:55;10.40;;;3.07;;
74528;SDS011;63009;52.584;5.932;2022-12-05T23:49:21;11.65;;;3.42;;
74528;SDS011;63009;52.584;5.932;2022-12-05T23:51:47;11.20;;;3.80;;
74528;SDS011;63009;52.584;5.932;2022-12-05T23:54:13;11.48;;;4.13;;
74528;SDS011;63009;52.584;5.932;2022-12-05T23:56:38;10.07;;;3.40;;
74528;SDS011;63009;52.584;5.932;2022-12-05T23:59:04;14.57;;;3.95;;
